sensor_id;sensor_type;location;lat;lon;timestamp;P1;P2;P0
64631;PMS5003;58358;50.936;0.246;2023-03-01T00:00:27;73;60;
64631;PMS5003;58358;50.936;0.246;2023-03-01T00:02:52;73;65;
64631;PMS5003;58358;50.936;0.246;2023-03-01T00:05:18;66;56;
64631;PMS5003;58358;50.936;0.246;2023-03-01T00:07:43;67;63;
64631;PMS5003;58358;50.936;0.246;2023-03-01T00:10:09;72;63;
64631;PMS5003;58358;50.936;0.246;2023-03-01T00:12:34;76;68;
64631;PMS5003;58358;50.936;0.246;2023-03-01T00:14:59;65;63;
64631;PMS5003;58358;50.936;0.246;2023-03-01T00:17:24;67;59;
64631;PMS5003;58358;50.936;0.246;2023-03-01T00:19:49;73;64;
64631;PMS5003;58358;50.936;0.246;2023-03-01T00:22:15;69;61;
64631;PMS5003;58358;50.936;0.246;2023-03-01T00:24:41;67;62;
64631;PMS5003;58358;50.936;0.246;2023-03-01T00:27:06;66;64;
64631;PMS5003;58358;50.936;0.246;2023-03-01T00:29:32;72;65;
64631;PMS5003;58358;50.936;0.246;2023-03-01T00:31:57;82;79;
64631;PMS5003;58358;50.936;0.246;2023-03-01T00:34:23;78;72;
64631;PMS5003;58358;50.936;0.246;2023-03-01T00:36:48;69;65;
64631;PMS5003;58358;50.936;0.246;2023-03-01T00:39:14;73;71;
64631;PMS5003;58358;50.936;0.246;2023-03-01T00:41:39;76;70;
64631;PMS5003;58358;50.936;0.246;2023-03-01T00:44:05;80;74;
64631;PMS5003;58358;50.936;0.246;2023-03-01T00:46:31;76;71;
64631;PMS5003;58358;50.936;0.246;2023-03-01T00:48:57;81;76;
64631;PMS5003;58358;50.936;0.246;2023-03-01T00:51:23;70;67;
64631;PMS5003;58358;50.936;0.246;2023-03-01T00:53:50;81;69;
64631;PMS5003;58358;50.936;0.246;2023-03-01T00:56:13;78;71;
64631;PMS5003;58358;50.936;0.246;2023-03-01T00:58:39;83;76;
64631;PMS5003;58358;50.936;0.246;2023-03-01T01:01:07;72;69;
64631;PMS5003;58358;50.936;0.246;2023-03-01T01:03:30;89;81;
64631;PMS5003;58358;50.936;0.246;2023-03-01T01:05:56;75;71;
64631;PMS5003;58358;50.936;0.246;2023-03-01T01:08:21;71;66;
64631;PMS5003;58358;50.936;0.246;2023-03-01T01:10:47;90;77;
64631;PMS5003;58358;50.936;0.246;2023-03-01T01:13:12;83;75;
64631;PMS5003;58358;50.936;0.246;2023-03-01T01:15:37;82;73;
64631;PMS5003;58358;50.936;0.246;2023-03-01T01:18:03;81;71;
64631;PMS5003;58358;50.936;0.246;2023-03-01T01:20:28;74;68;
64631;PMS5003;58358;50.936;0.246;2023-03-01T01:22:54;82;71;
64631;PMS5003;58358;50.936;0.246;2023-03-01T01:25:20;78;72;
64631;PMS5003;58358;50.936;0.246;2023-03-01T01:27:44;79;71;
64631;PMS5003;58358;50.936;0.246;2023-03-01T01:30:10;96;86;
64631;PMS5003;58358;50.936;0.246;2023-03-01T01:32:35;72;66;
64631;PMS5003;58358;50.936;0.246;2023-03-01T01:35:01;70;67;
64631;PMS5003;58358;50.936;0.246;2023-03-01T01:37:26;78;71;
64631;PMS5003;58358;50.936;0.246;2023-03-01T01:39:51;77;71;
64631;PMS5003;58358;50.936;0.246;2023-03-01T01:42:17;77;72;
64631;PMS5003;58358;50.936;0.246;2023-03-01T01:44:44;77;68;
64631;PMS5003;58358;50.936;0.246;2023-03-01T01:47:11;67;63;
64631;PMS5003;58358;50.936;0.246;2023-03-01T01:49:35;72;67;
64631;PMS5003;58358;50.936;0.246;2023-03-01T01:52:01;82;72;
64631;PMS5003;58358;50.936;0.246;2023-03-01T01:54:25;85;71;
64631;PMS5003;58358;50.936;0.246;2023-03-01T01:56:50;80;72;
64631;PMS5003;58358;50.936;0.246;2023-03-01T01:59:15;90;75;
64631;PMS5003;58358;50.936;0.246;2023-03-01T02:01:41;87;84;
64631;PMS5003;58358;50.936;0.246;2023-03-01T02:04:06;74;70;
64631;PMS5003;58358;50.936;0.246;2023-03-01T02:06:32;81;73;
64631;PMS5003;58358;50.936;0.246;2023-03-01T02:08:57;77;72;
64631;PMS5003;58358;50.936;0.246;2023-03-01T02:11:22;70;63;
64631;PMS5003;58358;50.936;0.246;2023-03-01T02:13:47;79;66;
64631;PMS5003;58358;50.936;0.246;2023-03-01T02:16:13;92;75;
64631;PMS5003;58358;50.936;0.246;2023-03-01T02:18:38;81;66;
64631;PMS5003;58358;50.936;0.246;2023-03-01T02:21:06;78;68;
64631;PMS5003;58358;50.936;0.246;2023-03-01T02:23:28;82;71;
64631;PMS5003;58358;50.936;0.246;2023-03-01T02:25:55;71;68;
64631;PMS5003;58358;50.936;0.246;2023-03-01T02:28:22;67;63;
64631;PMS5003;58358;50.936;0.246;2023-03-01T02:30:46;74;71;
64631;PMS5003;58358;50.936;0.246;2023-03-01T02:33:10;70;65;
64631;PMS5003;58358;50.936;0.246;2023-03-01T02:35:37;72;62;
64631;PMS5003;58358;50.936;0.246;2023-03-01T02:38:01;71;66;
64631;PMS5003;58358;50.936;0.246;2023-03-01T02:40:27;68;65;
64631;PMS5003;58358;50.936;0.246;2023-03-01T02:42:54;72;67;
64631;PMS5003;58358;50.936;0.246;2023-03-01T02:45:18;75;63;
64631;PMS5003;58358;50.936;0.246;2023-03-01T02:47:44;63;60;
64631;PMS5003;58358;50.936;0.246;2023-03-01T02:50:12;73;72;
64631;PMS5003;58358;50.936;0.246;2023-03-01T02:52:37;69;64;
64631;PMS5003;58358;50.936;0.246;2023-03-01T02:55:03;69;66;
64631;PMS5003;58358;50.936;0.246;2023-03-01T02:57:27;79;68;
64631;PMS5003;58358;50.936;0.246;2023-03-01T02:59:52;78;66;
64631;PMS5003;58358;50.936;0.246;2023-03-01T03:02:18;72;67;
64631;PMS5003;58358;50.936;0.246;2023-03-01T03:04:43;83;73;
64631;PMS5003;58358;50.936;0.246;2023-03-01T03:07:09;65;60;
64631;PMS5003;58358;50.936;0.246;2023-03-01T03:09:34;77;68;
64631;PMS5003;58358;50.936;0.246;2023-03-01T03:11:59;73;63;
64631;PMS5003;58358;50.936;0.246;2023-03-01T03:14:24;78;68;
64631;PMS5003;58358;50.936;0.246;2023-03-01T03:16:50;76;67;
64631;PMS5003;58358;50.936;0.246;2023-03-01T03:19:16;79;70;
64631;PMS5003;58358;50.936;0.246;2023-03-01T03:21:41;80;68;
64631;PMS5003;58358;50.936;0.246;2023-03-01T03:24:07;88;79;
64631;PMS5003;58358;50.936;0.246;2023-03-01T03:26:32;79;71;
64631;PMS5003;58358;50.936;0.246;2023-03-01T03:28:57;77;68;
64631;PMS5003;58358;50.936;0.246;2023-03-01T03:31:22;84;76;
64631;PMS5003;58358;50.936;0.246;2023-03-01T03:33:48;91;77;
64631;PMS5003;58358;50.936;0.246;2023-03-01T03:36:15;90;82;
64631;PMS5003;58358;50.936;0.246;2023-03-01T03:38:39;80;70;
64631;PMS5003;58358;50.936;0.246;2023-03-01T03:41:05;92;77;
64631;PMS5003;58358;50.936;0.246;2023-03-01T03:43:30;85;77;
64631;PMS5003;58358;50.936;0.246;2023-03-01T03:45:55;82;71;
64631;PMS5003;58358;50.936;0.246;2023-03-01T03:48:20;80;72;
64631;PMS5003;58358;50.936;0.246;2023-03-01T03:50:47;83;72;
64631;PMS5003;58358;50.936;0.246;2023-03-01T03:53:11;79;71;
64631;PMS5003;58358;50.936;0.246;2023-03-01T03:55:37;67;62;
64631;PMS5003;58358;50.936;0.246;2023-03-01T03:58:02;73;67;
64631;PMS5003;58358;50.936;0.246;2023-03-01T04:00:27;81;72;
64631;PMS5003;58358;50.936;0.246;2023-03-01T04:02:52;73;70;
64631;PMS5003;58358;50.936;0.246;2023-03-01T04:05:18;75;69;
64631;PMS5003;58358;50.936;0.246;2023-03-01T04:07:44;74;71;
64631;PMS5003;58358;50.936;0.246;2023-03-01T04:10:10;62;58;
64631;PMS5003;58358;50.936;0.246;2023-03-01T04:12:34;77;69;
64631;PMS5003;58358;50.936;0.246;2023-03-01T04:14:59;69;61;
64631;PMS5003;58358;50.936;0.246;2023-03-01T04:17:25;77;70;
64631;PMS5003;58358;50.936;0.246;2023-03-01T04:19:50;77;72;
64631;PMS5003;58358;50.936;0.246;2023-03-01T04:22:16;67;64;
64631;PMS5003;58358;50.936;0.246;2023-03-01T04:24:41;89;71;
64631;PMS5003;58358;50.936;0.246;2023-03-01T04:27:07;67;56;
64631;PMS5003;58358;50.936;0.246;2023-03-01T04:29:32;69;63;
64631;PMS5003;58358;50.936;0.246;2023-03-01T04:31:58;81;67;
64631;PMS5003;58358;50.936;0.246;2023-03-01T04:34:23;76;66;
64631;PMS5003;58358;50.936;0.246;2023-03-01T04:36:49;69;62;
64631;PMS5003;58358;50.936;0.246;2023-03-01T04:39:14;76;61;
64631;PMS5003;58358;50.936;0.246;2023-03-01T04:41:39;65;59;
64631;PMS5003;58358;50.936;0.246;2023-03-01T04:44:05;66;62;
64631;PMS5003;58358;50.936;0.246;2023-03-01T04:46:30;70;59;
64631;PMS5003;58358;50.936;0.246;2023-03-01T04:48:55;63;58;
64631;PMS5003;58358;50.936;0.246;2023-03-01T04:51:21;64;62;
64631;PMS5003;58358;50.936;0.246;2023-03-01T04:53:46;57;52;
64631;PMS5003;58358;50.936;0.246;2023-03-01T04:56:12;68;62;
64631;PMS5003;58358;50.936;0.246;2023-03-01T04:58:37;63;53;
64631;PMS5003;58358;50.936;0.246;2023-03-01T05:03:28;51;46;
64631;PMS5003;58358;50.936;0.246;2023-03-01T05:05:54;63;56;
64631;PMS5003;58358;50.936;0.246;2023-03-01T05:08:20;55;51;
64631;PMS5003;58358;50.936;0.246;2023-03-01T05:10:46;63;58;
64631;PMS5003;58358;50.936;0.246;2023-03-01T05:13:10;59;52;
64631;PMS5003;58358;50.936;0.246;2023-03-01T05:15:36;66;60;
64631;PMS5003;58358;50.936;0.246;2023-03-01T05:18:01;63;54;
64631;PMS5003;58358;50.936;0.246;2023-03-01T05:20:27;64;60;
64631;PMS5003;58358;50.936;0.246;2023-03-01T05:22:54;53;53;
64631;PMS5003;58358;50.936;0.246;2023-03-01T05:25:17;57;53;
64631;PMS5003;58358;50.936;0.246;2023-03-01T05:27:42;57;54;
64631;PMS5003;58358;50.936;0.246;2023-03-01T05:30:08;58;55;
64631;PMS5003;58358;50.936;0.246;2023-03-01T05:32:33;50;47;
64631;PMS5003;58358;50.936;0.246;2023-03-01T05:34:58;59;54;
64631;PMS5003;58358;50.936;0.246;2023-03-01T05:37:23;55;51;
64631;PMS5003;58358;50.936;0.246;2023-03-01T05:39:49;69;56;
64631;PMS5003;58358;50.936;0.246;2023-03-01T05:42:14;64;58;
64631;PMS5003;58358;50.936;0.246;2023-03-01T05:44:39;73;57;
64631;PMS5003;58358;50.936;0.246;2023-03-01T05:47:04;66;52;
64631;PMS5003;58358;50.936;0.246;2023-03-01T05:49:29;53;50;
64631;PMS5003;58358;50.936;0.246;2023-03-01T05:51:55;56;48;
64631;PMS5003;58358;50.936;0.246;2023-03-01T05:54:21;54;47;
64631;PMS5003;58358;50.936;0.246;2023-03-01T05:56:46;53;47;
64631;PMS5003;58358;50.936;0.246;2023-03-01T05:59:11;60;51;
64631;PMS5003;58358;50.936;0.246;2023-03-01T06:01:37;59;54;
64631;PMS5003;58358;50.936;0.246;2023-03-01T06:04:02;45;40;
64631;PMS5003;58358;50.936;0.246;2023-03-01T06:06:27;60;57;
64631;PMS5003;58358;50.936;0.246;2023-03-01T06:08:52;54;45;
64631;PMS5003;58358;50.936;0.246;2023-03-01T06:11:18;51;44;
64631;PMS5003;58358;50.936;0.246;2023-03-01T06:13:43;43;42;
64631;PMS5003;58358;50.936;0.246;2023-03-01T06:16:09;50;41;
64631;PMS5003;58358;50.936;0.246;2023-03-01T06:18:34;46;40;
64631;PMS5003;58358;50.936;0.246;2023-03-01T06:20:59;46;42;
64631;PMS5003;58358;50.936;0.246;2023-03-01T06:23:24;51;47;
64631;PMS5003;58358;50.936;0.246;2023-03-01T06:25:49;47;39;
64631;PMS5003;58358;50.936;0.246;2023-03-01T06:28:14;47;46;
64631;PMS5003;58358;50.936;0.246;2023-03-01T06:30:39;52;46;
64631;PMS5003;58358;50.936;0.246;2023-03-01T06:33:05;48;42;
64631;PMS5003;58358;50.936;0.246;2023-03-01T06:35:30;43;39;
64631;PMS5003;58358;50.936;0.246;2023-03-01T06:37:56;46;44;
64631;PMS5003;58358;50.936;0.246;2023-03-01T06:40:21;43;36;
64631;PMS5003;58358;50.936;0.246;2023-03-01T06:42:47;40;36;
64631;PMS5003;58358;50.936;0.246;2023-03-01T06:45:12;46;41;
64631;PMS5003;58358;50.936;0.246;2023-03-01T06:47:37;41;36;
64631;PMS5003;58358;50.936;0.246;2023-03-01T06:50:03;43;41;
64631;PMS5003;58358;50.936;0.246;2023-03-01T06:52:29;41;36;
64631;PMS5003;58358;50.936;0.246;2023-03-01T06:54:54;47;43;
64631;PMS5003;58358;50.936;0.246;2023-03-01T06:57:20;41;37;
64631;PMS5003;58358;50.936;0.246;2023-03-01T06:59:46;36;33;
64631;PMS5003;58358;50.936;0.246;2023-03-01T07:02:11;38;34;
64631;PMS5003;58358;50.936;0.246;2023-03-01T07:04:36;42;37;
64631;PMS5003;58358;50.936;0.246;2023-03-01T07:07:01;43;40;
64631;PMS5003;58358;50.936;0.246;2023-03-01T07:09:27;45;39;
64631;PMS5003;58358;50.936;0.246;2023-03-01T07:11:52;40;36;
64631;PMS5003;58358;50.936;0.246;2023-03-01T07:14:18;51;42;
64631;PMS5003;58358;50.936;0.246;2023-03-01T07:16:43;34;31;
64631;PMS5003;58358;50.936;0.246;2023-03-01T07:19:08;37;35;
64631;PMS5003;58358;50.936;0.246;2023-03-01T07:21:34;34;34;
64631;PMS5003;58358;50.936;0.246;2023-03-01T07:23:59;49;38;
64631;PMS5003;58358;50.936;0.246;2023-03-01T07:26:24;41;37;
64631;PMS5003;58358;50.936;0.246;2023-03-01T07:28:49;40;36;
64631;PMS5003;58358;50.936;0.246;2023-03-01T07:31:15;40;37;
64631;PMS5003;58358;50.936;0.246;2023-03-01T07:33:41;37;34;
64631;PMS5003;58358;50.936;0.246;2023-03-01T07:36:07;42;36;
64631;PMS5003;58358;50.936;0.246;2023-03-01T07:38:32;43;41;
64631;PMS5003;58358;50.936;0.246;2023-03-01T07:40:57;33;31;
64631;PMS5003;58358;50.936;0.246;2023-03-01T07:43:23;39;36;
64631;PMS5003;58358;50.936;0.246;2023-03-01T07:45:48;37;34;
64631;PMS5003;58358;50.936;0.246;2023-03-01T07:48:13;39;39;
64631;PMS5003;58358;50.936;0.246;2023-03-01T07:50:39;37;34;
64631;PMS5003;58358;50.936;0.246;2023-03-01T07:53:05;59;58;
64631;PMS5003;58358;50.936;0.246;2023-03-01T07:55:30;37;35;
64631;PMS5003;58358;50.936;0.246;2023-03-01T07:57:55;71;69;
64631;PMS5003;58358;50.936;0.246;2023-03-01T08:00:20;52;49;
64631;PMS5003;58358;50.936;0.246;2023-03-01T08:02:45;36;35;
64631;PMS5003;58358;50.936;0.246;2023-03-01T08:05:11;55;53;
64631;PMS5003;58358;50.936;0.246;2023-03-01T08:07:36;51;45;
64631;PMS5003;58358;50.936;0.246;2023-03-01T08:10:01;76;69;
64631;PMS5003;58358;50.936;0.246;2023-03-01T08:12:27;45;35;
64631;PMS5003;58358;50.936;0.246;2023-03-01T08:14:52;45;41;
64631;PMS5003;58358;50.936;0.246;2023-03-01T08:17:17;42;35;
64631;PMS5003;58358;50.936;0.246;2023-03-01T08:19:43;69;65;
64631;PMS5003;58358;50.936;0.246;2023-03-01T08:22:08;35;32;
64631;PMS5003;58358;50.936;0.246;2023-03-01T08:24:34;51;46;
64631;PMS5003;58358;50.936;0.246;2023-03-01T08:26:59;38;33;
64631;PMS5003;58358;50.936;0.246;2023-03-01T08:29:24;38;37;
64631;PMS5003;58358;50.936;0.246;2023-03-01T08:31:50;32;30;
64631;PMS5003;58358;50.936;0.246;2023-03-01T08:34:16;52;48;
64631;PMS5003;58358;50.936;0.246;2023-03-01T08:36:41;34;34;
64631;PMS5003;58358;50.936;0.246;2023-03-01T08:39:07;32;30;
64631;PMS5003;58358;50.936;0.246;2023-03-01T08:41:32;39;37;
64631;PMS5003;58358;50.936;0.246;2023-03-01T08:43:57;33;31;
64631;PMS5003;58358;50.936;0.246;2023-03-01T08:46:23;34;32;
64631;PMS5003;58358;50.936;0.246;2023-03-01T08:48:49;31;26;
64631;PMS5003;58358;50.936;0.246;2023-03-01T08:51:15;36;33;
64631;PMS5003;58358;50.936;0.246;2023-03-01T08:53:40;43;41;
64631;PMS5003;58358;50.936;0.246;2023-03-01T08:56:05;43;39;
64631;PMS5003;58358;50.936;0.246;2023-03-01T08:58:30;36;35;
64631;PMS5003;58358;50.936;0.246;2023-03-01T09:00:56;47;45;
64631;PMS5003;58358;50.936;0.246;2023-03-01T09:03:21;36;36;
64631;PMS5003;58358;50.936;0.246;2023-03-01T09:05:47;32;28;
64631;PMS5003;58358;50.936;0.246;2023-03-01T09:08:13;31;25;
64631;PMS5003;58358;50.936;0.246;2023-03-01T09:10:39;37;33;
64631;PMS5003;58358;50.936;0.246;2023-03-01T09:13:04;38;33;
64631;PMS5003;58358;50.936;0.246;2023-03-01T09:15:30;35;32;
64631;PMS5003;58358;50.936;0.246;2023-03-01T09:17:55;39;34;
64631;PMS5003;58358;50.936;0.246;2023-03-01T09:20:21;35;31;
64631;PMS5003;58358;50.936;0.246;2023-03-01T09:22:46;30;30;
64631;PMS5003;58358;50.936;0.246;2023-03-01T09:25:12;37;33;
64631;PMS5003;58358;50.936;0.246;2023-03-01T09:27:37;32;27;
64631;PMS5003;58358;50.936;0.246;2023-03-01T09:30:03;34;32;
64631;PMS5003;58358;50.936;0.246;2023-03-01T09:32:29;35;31;
64631;PMS5003;58358;50.936;0.246;2023-03-01T09:34:53;35;32;
64631;PMS5003;58358;50.936;0.246;2023-03-01T09:37:18;35;31;
64631;PMS5003;58358;50.936;0.246;2023-03-01T09:39:44;32;30;
64631;PMS5003;58358;50.936;0.246;2023-03-01T09:42:10;32;29;
64631;PMS5003;58358;50.936;0.246;2023-03-01T09:44:36;32;31;
64631;PMS5003;58358;50.936;0.246;2023-03-01T09:47:00;26;25;
64631;PMS5003;58358;50.936;0.246;2023-03-01T09:49:26;31;26;
64631;PMS5003;58358;50.936;0.246;2023-03-01T09:51:56;32;25;
64631;PMS5003;58358;50.936;0.246;2023-03-01T09:54:16;34;32;
64631;PMS5003;58358;50.936;0.246;2023-03-01T09:56:44;22;21;
64631;PMS5003;58358;50.936;0.246;2023-03-01T09:59:11;24;24;
64631;PMS5003;58358;50.936;0.246;2023-03-01T10:01:34;20;20;
64631;PMS5003;58358;50.936;0.246;2023-03-01T10:04:01;29;23;
64631;PMS5003;58358;50.936;0.246;2023-03-01T10:06:24;24;22;
64631;PMS5003;58358;50.936;0.246;2023-03-01T10:08:50;23;22;
64631;PMS5003;58358;50.936;0.246;2023-03-01T10:11:20;21;19;
64631;PMS5003;58358;50.936;0.246;2023-03-01T10:13:44;19;16;
64631;PMS5003;58358;50.936;0.246;2023-03-01T10:16:09;21;16;
64631;PMS5003;58358;50.936;0.246;2023-03-01T10:18:32;18;15;
64631;PMS5003;58358;50.936;0.246;2023-03-01T10:20:58;14;14;
64631;PMS5003;58358;50.936;0.246;2023-03-01T10:23:23;18;17;
64631;PMS5003;58358;50.936;0.246;2023-03-01T10:25:52;17;17;
64631;PMS5003;58358;50.936;0.246;2023-03-01T10:28:16;13;13;
64631;PMS5003;58358;50.936;0.246;2023-03-01T10:30:39;21;20;
64631;PMS5003;58358;50.936;0.246;2023-03-01T10:33:04;16;15;
64631;PMS5003;58358;50.936;0.246;2023-03-01T10:35:31;17;14;
64631;PMS5003;58358;50.936;0.246;2023-03-01T10:37:56;14;13;
64631;PMS5003;58358;50.936;0.246;2023-03-01T10:40:21;13;13;
64631;PMS5003;58358;50.936;0.246;2023-03-01T10:42:46;8;8;
64631;PMS5003;58358;50.936;0.246;2023-03-01T10:45:15;12;10;
64631;PMS5003;58358;50.936;0.246;2023-03-01T10:47:37;13;9;
64631;PMS5003;58358;50.936;0.246;2023-03-01T10:50:03;8;8;
64631;PMS5003;58358;50.936;0.246;2023-03-01T10:52:30;9;8;
64631;PMS5003;58358;50.936;0.246;2023-03-01T10:54:55;7;7;
64631;PMS5003;58358;50.936;0.246;2023-03-01T10:57:28;10;10;
64631;PMS5003;58358;50.936;0.246;2023-03-01T10:59:45;10;10;
64631;PMS5003;58358;50.936;0.246;2023-03-01T11:02:15;7;6;
64631;PMS5003;58358;50.936;0.246;2023-03-01T11:04:36;10;9;
64631;PMS5003;58358;50.936;0.246;2023-03-01T11:07:02;10;7;
64631;PMS5003;58358;50.936;0.246;2023-03-01T11:09:30;10;10;
64631;PMS5003;58358;50.936;0.246;2023-03-01T11:11:52;11;11;
64631;PMS5003;58358;50.936;0.246;2023-03-01T11:14:20;9;9;
64631;PMS5003;58358;50.936;0.246;2023-03-01T11:16:45;10;10;
64631;PMS5003;58358;50.936;0.246;2023-03-01T11:19:17;9;7;
64631;PMS5003;58358;50.936;0.246;2023-03-01T11:21:35;7;7;
64631;PMS5003;58358;50.936;0.246;2023-03-01T11:24:00;14;13;
64631;PMS5003;58358;50.936;0.246;2023-03-01T11:26:25;6;6;
64631;PMS5003;58358;50.936;0.246;2023-03-01T11:28:51;10;10;
64631;PMS5003;58358;50.936;0.246;2023-03-01T11:31:16;13;13;
64631;PMS5003;58358;50.936;0.246;2023-03-01T11:33:43;12;11;
64631;PMS5003;58358;50.936;0.246;2023-03-01T11:36:08;7;7;
64631;PMS5003;58358;50.936;0.246;2023-03-01T11:38:34;11;10;
64631;PMS5003;58358;50.936;0.246;2023-03-01T11:40:59;13;13;
64631;PMS5003;58358;50.936;0.246;2023-03-01T11:43:26;7;7;
64631;PMS5003;58358;50.936;0.246;2023-03-01T11:45:55;6;6;
64631;PMS5003;58358;50.936;0.246;2023-03-01T11:50:40;6;6;
64631;PMS5003;58358;50.936;0.246;2023-03-01T11:53:09;6;6;
64631;PMS5003;58358;50.936;0.246;2023-03-01T11:55:32;4;4;
64631;PMS5003;58358;50.936;0.246;2023-03-01T11:58:02;5;5;
64631;PMS5003;58358;50.936;0.246;2023-03-01T12:00:25;6;6;
64631;PMS5003;58358;50.936;0.246;2023-03-01T12:02:53;13;13;
64631;PMS5003;58358;50.936;0.246;2023-03-01T12:05:19;5;5;
64631;PMS5003;58358;50.936;0.246;2023-03-01T12:07:39;44;39;
64631;PMS5003;58358;50.936;0.246;2023-03-01T12:12:31;30;29;
64631;PMS5003;58358;50.936;0.246;2023-03-01T12:14:58;10;9;
64631;PMS5003;58358;50.936;0.246;2023-03-01T12:17:31;11;10;
64631;PMS5003;58358;50.936;0.246;2023-03-01T12:19:52;11;10;
64631;PMS5003;58358;50.936;0.246;2023-03-01T12:22:17;17;16;
64631;PMS5003;58358;50.936;0.246;2023-03-01T12:24:40;11;10;
64631;PMS5003;58358;50.936;0.246;2023-03-01T12:27:09;9;9;
64631;PMS5003;58358;50.936;0.246;2023-03-01T12:29:29;7;7;
64631;PMS5003;58358;50.936;0.246;2023-03-01T12:34:24;10;9;
64631;PMS5003;58358;50.936;0.246;2023-03-01T12:36:47;11;11;
64631;PMS5003;58358;50.936;0.246;2023-03-01T12:39:13;9;9;
64631;PMS5003;58358;50.936;0.246;2023-03-01T12:41:38;7;6;
64631;PMS5003;58358;50.936;0.246;2023-03-01T12:44:03;6;6;
64631;PMS5003;58358;50.936;0.246;2023-03-01T12:46:29;5;5;
64631;PMS5003;58358;50.936;0.246;2023-03-01T12:48:53;10;10;
64631;PMS5003;58358;50.936;0.246;2023-03-01T12:51:19;10;8;
64631;PMS5003;58358;50.936;0.246;2023-03-01T12:53:43;6;6;
64631;PMS5003;58358;50.936;0.246;2023-03-01T12:56:09;6;6;
64631;PMS5003;58358;50.936;0.246;2023-03-01T12:58:35;7;7;
64631;PMS5003;58358;50.936;0.246;2023-03-01T13:01:04;6;6;
64631;PMS5003;58358;50.936;0.246;2023-03-01T13:03:26;11;8;
64631;PMS5003;58358;50.936;0.246;2023-03-01T13:05:56;7;7;
64631;PMS5003;58358;50.936;0.246;2023-03-01T13:08:19;6;6;
64631;PMS5003;58358;50.936;0.246;2023-03-01T13:10:43;7;7;
64631;PMS5003;58358;50.936;0.246;2023-03-01T13:13:14;7;7;
64631;PMS5003;58358;50.936;0.246;2023-03-01T13:15:34;5;4;
64631;PMS5003;58358;50.936;0.246;2023-03-01T13:18:00;10;6;
64631;PMS5003;58358;50.936;0.246;2023-03-01T13:20:25;7;7;
64631;PMS5003;58358;50.936;0.246;2023-03-01T13:25:16;10;10;
64631;PMS5003;58358;50.936;0.246;2023-03-01T13:27:41;8;8;
64631;PMS5003;58358;50.936;0.246;2023-03-01T13:32:32;11;11;
64631;PMS5003;58358;50.936;0.246;2023-03-01T13:34:58;7;7;
64631;PMS5003;58358;50.936;0.246;2023-03-01T13:37:27;5;5;
64631;PMS5003;58358;50.936;0.246;2023-03-01T13:39:49;7;7;
64631;PMS5003;58358;50.936;0.246;2023-03-01T13:44:40;30;26;
64631;PMS5003;58358;50.936;0.246;2023-03-01T13:47:07;5;5;
64631;PMS5003;58358;50.936;0.246;2023-03-01T13:49:33;39;31;
64631;PMS5003;58358;50.936;0.246;2023-03-01T13:51:56;11;8;
64631;PMS5003;58358;50.936;0.246;2023-03-01T13:54:24;8;8;
64631;PMS5003;58358;50.936;0.246;2023-03-01T13:56:47;11;8;
64631;PMS5003;58358;50.936;0.246;2023-03-01T13:59:13;36;34;
64631;PMS5003;58358;50.936;0.246;2023-03-01T14:01:38;10;9;
64631;PMS5003;58358;50.936;0.246;2023-03-01T14:06:30;6;6;
64631;PMS5003;58358;50.936;0.246;2023-03-01T14:09:01;84;82;
64631;PMS5003;58358;50.936;0.246;2023-03-01T14:11:31;7;7;
64631;PMS5003;58358;50.936;0.246;2023-03-01T14:13:56;16;16;
64631;PMS5003;58358;50.936;0.246;2023-03-01T14:16:16;49;45;
64631;PMS5003;58358;50.936;0.246;2023-03-01T14:18:38;12;12;
64631;PMS5003;58358;50.936;0.246;2023-03-01T14:21:07;18;18;
64631;PMS5003;58358;50.936;0.246;2023-03-01T14:23:29;6;6;
64631;PMS5003;58358;50.936;0.246;2023-03-01T14:25:55;33;29;
64631;PMS5003;58358;50.936;0.246;2023-03-01T14:28:21;5;5;
64631;PMS5003;58358;50.936;0.246;2023-03-01T14:30:45;139;127;
64631;PMS5003;58358;50.936;0.246;2023-03-01T14:33:18;63;58;
64631;PMS5003;58358;50.936;0.246;2023-03-01T14:35:36;24;21;
64631;PMS5003;58358;50.936;0.246;2023-03-01T14:38:02;6;6;
64631;PMS5003;58358;50.936;0.246;2023-03-01T14:40:28;37;36;
64631;PMS5003;58358;50.936;0.246;2023-03-01T14:42:53;10;7;
64631;PMS5003;58358;50.936;0.246;2023-03-01T14:45:18;11;8;
64631;PMS5003;58358;50.936;0.246;2023-03-01T14:47:43;304;270;
64631;PMS5003;58358;50.936;0.246;2023-03-01T14:50:14;85;76;
64631;PMS5003;58358;50.936;0.246;2023-03-01T14:52:35;55;49;
64631;PMS5003;58358;50.936;0.246;2023-03-01T14:55:00;5;5;
64631;PMS5003;58358;50.936;0.246;2023-03-01T14:57:26;19;18;
64631;PMS5003;58358;50.936;0.246;2023-03-01T14:59:52;10;10;
64631;PMS5003;58358;50.936;0.246;2023-03-01T15:02:18;26;25;
64631;PMS5003;58358;50.936;0.246;2023-03-01T15:04:43;6;6;
64631;PMS5003;58358;50.936;0.246;2023-03-01T15:07:09;6;6;
64631;PMS5003;58358;50.936;0.246;2023-03-01T15:09:34;6;6;
64631;PMS5003;58358;50.936;0.246;2023-03-01T15:11:59;19;19;
64631;PMS5003;58358;50.936;0.246;2023-03-01T15:14:26;3;3;
64631;PMS5003;58358;50.936;0.246;2023-03-01T15:16:50;4;4;
64631;PMS5003;58358;50.936;0.246;2023-03-01T15:19:16;4;4;
64631;PMS5003;58358;50.936;0.246;2023-03-01T15:21:42;15;12;
64631;PMS5003;58358;50.936;0.246;2023-03-01T15:24:17;6;6;
64631;PMS5003;58358;50.936;0.246;2023-03-01T15:26:35;11;11;
64631;PMS5003;58358;50.936;0.246;2023-03-01T15:28:59;5;5;
64631;PMS5003;58358;50.936;0.246;2023-03-01T15:31:24;24;20;
64631;PMS5003;58358;50.936;0.246;2023-03-01T15:33:49;9;7;
64631;PMS5003;58358;50.936;0.246;2023-03-01T15:41:21;6;4;
64631;PMS5003;58358;50.936;0.246;2023-03-01T15:43:38;5;5;
64631;PMS5003;58358;50.936;0.246;2023-03-01T15:45:56;20;14;
64631;PMS5003;58358;50.936;0.246;2023-03-01T15:48:21;6;5;
64631;PMS5003;58358;50.936;0.246;2023-03-01T15:53:12;14;13;
64631;PMS5003;58358;50.936;0.246;2023-03-01T15:55:38;11;7;
64631;PMS5003;58358;50.936;0.246;2023-03-01T15:58:04;9;9;
64631;PMS5003;58358;50.936;0.246;2023-03-01T16:00:29;11;9;
64631;PMS5003;58358;50.936;0.246;2023-03-01T16:02:55;7;7;
64631;PMS5003;58358;50.936;0.246;2023-03-01T16:05:21;5;5;
64631;PMS5003;58358;50.936;0.246;2023-03-01T16:07:46;10;10;
64631;PMS5003;58358;50.936;0.246;2023-03-01T16:10:11;6;6;
64631;PMS5003;58358;50.936;0.246;2023-03-01T16:12:36;3;3;
64631;PMS5003;58358;50.936;0.246;2023-03-01T16:15:02;5;5;
64631;PMS5003;58358;50.936;0.246;2023-03-01T16:17:28;11;11;
64631;PMS5003;58358;50.936;0.246;2023-03-01T16:19:53;11;11;
64631;PMS5003;58358;50.936;0.246;2023-03-01T16:22:18;11;9;
64631;PMS5003;58358;50.936;0.246;2023-03-01T16:24:43;4;4;
64631;PMS5003;58358;50.936;0.246;2023-03-01T16:27:09;12;10;
64631;PMS5003;58358;50.936;0.246;2023-03-01T16:29:34;7;5;
64631;PMS5003;58358;50.936;0.246;2023-03-01T16:32:00;30;21;
64631;PMS5003;58358;50.936;0.246;2023-03-01T16:34:25;24;23;
64631;PMS5003;58358;50.936;0.246;2023-03-01T16:36:51;6;6;